PWSweather.com
Personal Weather Stations
Station Observations
79674
AfterstegDE 79674

AfterstegDE 79674

Lat: 47.84344, Lon: 7.92844

Elevation: 809

Station Type: Davis Vantage 2 Aktive

Latest ConditionsUpdated 9:57:04 AM GMT+01:01 Monday, Apr 27, 2015
Currently Today's Max Today's Min Today's Average
Temperature 55.8°F13.2°C 55.8°F13.2°C 47.5°F8.6°C 50.4°F10.2°C
Dew Point 49.6°F9.8°C 50.0°F10.0°C 45.5°F7.5°C 47.8°F8.8°C
Winds 4.0 mph WNW6.4 kmh WNW 4.0 mph WNW6.4 kmh WNW - 0.5 mph 0.8 kmh
Wind Gusts 6.0 mph9.7 kmh 6.0 mph9.7 kmh - -
Humidity 80% 94% 80% 91%
Pressure 29.57 in1001.4 mb 29.66 in1004.4 mb 29.57 in1001.4 mb -
Hour Temp Dew Point Humidity Winds Wind Gusts Pressure Precip Precip Rate Daily Precip Total
09:57 AM 55.8°F13.2°C 49.6°F9.8°C 80% 4.0 mph WNW6.4 kmh WNW 6.0 mph9.7 kmh 29.57 in1001.4 mb - 0.00 in0.0 mm 0.00 in0.0 mm
09:52 AM 55.8°F13.2°C 50.0°F10.0°C 81% 2.9 mph WNW4.7 kmh WNW 4.0 mph6.4 kmh 29.58 in1001.7 mb - 0.00 in0.0 mm 0.00 in0.0 mm
09:47 AM 55.4°F13.0°C 50.0°F10.0°C 82% 0.9 mph NW1.4 kmh NW 4.0 mph6.4 kmh 29.58 in1001.7 mb - 0.00 in0.0 mm 0.00 in0.0 mm
09:42 AM 54.9°F12.7°C 49.8°F9.9°C 83% Calm Calm 0.9 mph1.4 kmh 29.58 in1001.7 mb - 0.00 in0.0 mm 0.00 in0.0 mm
09:37 AM 54.5°F12.5°C 49.8°F9.9°C 84% Calm Calm -- 29.58 in1001.7 mb - 0.00 in0.0 mm 0.00 in0.0 mm
09:32 AM 54.0°F12.2°C 49.3°F9.6°C 84% Calm Calm -- 29.58 in1001.7 mb - 0.00 in0.0 mm 0.00 in0.0 mm
09:27 AM 53.8°F12.1°C 49.5°F9.7°C 85% Calm Calm -- 29.58 in1001.7 mb - 0.00 in0.0 mm 0.00 in0.0 mm
09:22 AM 53.6°F12.0°C 49.3°F9.6°C 85% Calm Calm -- 29.58 in1001.7 mb - 0.00 in0.0 mm 0.00 in0.0 mm
09:17 AM 53.6°F12.0°C 49.5°F9.7°C 86% Calm Calm 0.9 mph1.4 kmh 29.58 in1001.7 mb - 0.00 in0.0 mm 0.00 in0.0 mm
09:12 AM 53.2°F11.8°C 48.9°F9.4°C 85% Calm Calm -- 29.58 in1001.7 mb - 0.00 in0.0 mm 0.00 in0.0 mm
09:07 AM 53.2°F11.8°C 48.9°F9.4°C 85% 0.9 mph S1.4 kmh S -- 29.58 in1001.7 mb - 0.00 in0.0 mm 0.00 in0.0 mm
09:02 AM 53.2°F11.8°C 49.1°F9.5°C 86% 0.9 mph S1.4 kmh S -- 29.58 in1001.7 mb - 0.00 in0.0 mm 0.00 in0.0 mm
08:57 AM 53.1°F11.7°C 48.7°F9.3°C 85% Calm Calm -- 29.58 in1001.7 mb - 0.00 in0.0 mm 0.00 in0.0 mm
08:52 AM 53.2°F11.8°C 49.1°F9.5°C 86% Calm Calm -- 29.58 in1001.7 mb - 0.00 in0.0 mm 0.00 in0.0 mm
08:47 AM 53.2°F11.8°C 49.5°F9.7°C 87% 0.9 mph S1.4 kmh S -- 29.58 in1001.7 mb - 0.00 in0.0 mm 0.00 in0.0 mm
08:42 AM 53.1°F11.7°C 49.3°F9.6°C 87% 0.9 mph S1.4 kmh S -- 29.58 in1001.7 mb - 0.00 in0.0 mm 0.00 in0.0 mm
08:37 AM 52.9°F11.6°C 49.5°F9.7°C 88% 0.9 mph SSE1.4 kmh SSE -- 29.59 in1002.0 mb - 0.00 in0.0 mm 0.00 in0.0 mm
08:32 AM 52.9°F11.6°C 49.5°F9.7°C 88% Calm Calm 0.9 mph1.4 kmh 29.59 in1002.0 mb - 0.00 in0.0 mm 0.00 in0.0 mm
08:27 AM 52.3°F11.3°C 49.3°F9.6°C 89% Calm Calm -- 29.59 in1002.0 mb - 0.00 in0.0 mm 0.00 in0.0 mm
08:22 AM 51.6°F10.9°C 48.6°F9.2°C 89% 0.9 mph ESE1.4 kmh ESE -- 29.59 in1002.0 mb - 0.00 in0.0 mm 0.00 in0.0 mm
08:17 AM 51.4°F10.8°C 48.6°F9.2°C 90% 0.9 mph S1.4 kmh S -- 29.59 in1002.0 mb - 0.00 in0.0 mm 0.00 in0.0 mm
08:12 AM 51.3°F10.7°C 48.2°F9.0°C 89% 0.9 mph SSE1.4 kmh SSE -- 29.58 in1001.7 mb - 0.00 in0.0 mm 0.00 in0.0 mm
08:07 AM 51.4°F10.8°C 48.4°F9.1°C 89% Calm Calm 2.0 mph3.2 kmh 29.59 in1002.0 mb - 0.00 in0.0 mm 0.00 in0.0 mm
08:02 AM 51.4°F10.8°C 48.4°F9.1°C 89% Calm Calm -- 29.59 in1002.0 mb - 0.00 in0.0 mm 0.00 in0.0 mm
07:57 AM 51.3°F10.7°C 48.4°F9.1°C 90% Calm Calm -- 29.59 in1002.0 mb - 0.00 in0.0 mm 0.00 in0.0 mm
07:52 AM 50.9°F10.5°C 48.4°F9.1°C 91% Calm Calm -- 29.59 in1002.0 mb - 0.00 in0.0 mm 0.00 in0.0 mm
07:47 AM 50.7°F10.4°C 48.2°F9.0°C 91% Calm Calm -- 29.59 in1002.0 mb - 0.00 in0.0 mm 0.00 in0.0 mm
07:42 AM 50.5°F10.3°C 48.0°F8.9°C 91% Calm Calm -- 29.59 in1002.0 mb - 0.00 in0.0 mm 0.00 in0.0 mm
07:37 AM 50.4°F10.2°C 47.8°F8.8°C 91% 0.9 mph SE1.4 kmh SE -- 29.59 in1002.0 mb - 0.00 in0.0 mm 0.00 in0.0 mm
07:32 AM 50.4°F10.2°C 47.8°F8.8°C 91% 0.9 mph SE1.4 kmh SE -- 29.59 in1002.0 mb - 0.00 in0.0 mm 0.00 in0.0 mm
07:27 AM 50.5°F10.3°C 48.0°F8.9°C 91% Calm Calm -- 29.59 in1002.0 mb - 0.00 in0.0 mm 0.00 in0.0 mm
07:22 AM 50.2°F10.1°C 47.7°F8.7°C 91% Calm Calm 0.9 mph1.4 kmh 29.59 in1002.0 mb - 0.00 in0.0 mm 0.00 in0.0 mm
07:17 AM 49.8°F9.9°C 47.3°F8.5°C 91% Calm Calm -- 29.59 in1002.0 mb - 0.00 in0.0 mm 0.00 in0.0 mm
07:12 AM 50.2°F10.1°C 47.7°F8.7°C 91% Calm Calm -- 29.58 in1001.7 mb - 0.00 in0.0 mm 0.00 in0.0 mm
07:07 AM 50.4°F10.2°C 47.5°F8.6°C 90% Calm Calm -- 29.58 in1001.7 mb - 0.00 in0.0 mm 0.00 in0.0 mm
07:02 AM 50.5°F10.3°C 48.0°F8.9°C 91% 0.9 mph NW1.4 kmh NW -- 29.58 in1001.7 mb - 0.00 in0.0 mm 0.00 in0.0 mm
06:57 AM 50.2°F10.1°C 47.7°F8.7°C 91% 0.9 mph NW1.4 kmh NW -- 29.58 in1001.7 mb - 0.00 in0.0 mm 0.00 in0.0 mm
06:52 AM 49.8°F9.9°C 47.3°F8.5°C 91% 0.9 mph NW1.4 kmh NW 2.9 mph4.7 kmh 29.58 in1001.7 mb - 0.00 in0.0 mm 0.00 in0.0 mm
06:47 AM 49.6°F9.8°C 47.1°F8.4°C 91% Calm Calm -- 29.58 in1001.7 mb - 0.00 in0.0 mm 0.00 in0.0 mm
06:42 AM 49.6°F9.8°C 47.1°F8.4°C 91% Calm Calm -- 29.58 in1001.7 mb - 0.00 in0.0 mm 0.00 in0.0 mm
06:37 AM 49.5°F9.7°C 46.9°F8.3°C 91% Calm Calm -- 29.59 in1002.0 mb - 0.00 in0.0 mm 0.00 in0.0 mm
06:32 AM 49.5°F9.7°C 46.9°F8.3°C 91% Calm Calm -- 29.59 in1002.0 mb - 0.00 in0.0 mm 0.00 in0.0 mm
06:27 AM 49.6°F9.8°C 47.1°F8.4°C 91% Calm Calm -- 29.59 in1002.0 mb - 0.00 in0.0 mm 0.00 in0.0 mm
06:22 AM 49.6°F9.8°C 47.5°F8.6°C 92% 0.9 mph NNW1.4 kmh NNW -- 29.59 in1002.0 mb - 0.00 in0.0 mm 0.00 in0.0 mm
06:17 AM 49.3°F9.6°C 47.1°F8.4°C 92% Calm Calm 0.9 mph1.4 kmh 29.59 in1002.0 mb - 0.00 in0.0 mm 0.00 in0.0 mm
06:12 AM 48.9°F9.4°C 46.9°F8.3°C 93% Calm Calm -- 29.59 in1002.0 mb - 0.00 in0.0 mm 0.00 in0.0 mm
06:07 AM 48.7°F9.3°C 46.8°F8.2°C 93% Calm Calm -- 29.59 in1002.0 mb - 0.00 in0.0 mm 0.00 in0.0 mm
06:02 AM 48.7°F9.3°C 46.8°F8.2°C 93% Calm Calm -- 29.59 in1002.0 mb - 0.00 in0.0 mm 0.00 in0.0 mm
05:57 AM 48.6°F9.2°C 46.6°F8.1°C 93% Calm Calm -- 29.59 in1002.0 mb - 0.00 in0.0 mm 0.00 in0.0 mm
05:52 AM 48.4°F9.1°C 46.4°F8.0°C 93% Calm Calm -- 29.59 in1002.0 mb - 0.00 in0.0 mm 0.00 in0.0 mm
05:47 AM 48.4°F9.1°C 46.4°F8.0°C 93% Calm Calm -- 29.59 in1002.0 mb - 0.00 in0.0 mm 0.00 in0.0 mm
05:42 AM 48.4°F9.1°C 46.4°F8.0°C 93% Calm Calm -- 29.59 in1002.0 mb - 0.00 in0.0 mm 0.00 in0.0 mm
05:37 AM 48.4°F9.1°C 46.4°F8.0°C 93% Calm Calm -- 29.59 in1002.0 mb - 0.00 in0.0 mm 0.00 in0.0 mm
05:32 AM 48.4°F9.1°C 46.8°F8.2°C 94% Calm Calm -- 29.59 in1002.0 mb - 0.00 in0.0 mm 0.00 in0.0 mm
05:27 AM 48.0°F8.9°C 46.4°F8.0°C 94% Calm Calm -- 29.59 in1002.0 mb - 0.00 in0.0 mm 0.00 in0.0 mm
05:22 AM 47.7°F8.7°C 46.0°F7.8°C 94% Calm Calm -- 29.59 in1002.0 mb - 0.00 in0.0 mm 0.00 in0.0 mm
05:17 AM 47.5°F8.6°C 45.5°F7.5°C 93% Calm Calm -- 29.59 in1002.0 mb - 0.00 in0.0 mm 0.00 in0.0 mm
05:12 AM 47.5°F8.6°C 45.5°F7.5°C 93% Calm Calm -- 29.59 in1002.0 mb - 0.00 in0.0 mm 0.00 in0.0 mm
05:07 AM 47.5°F8.6°C 45.5°F7.5°C 93% Calm Calm -- 29.59 in1002.0 mb - 0.00 in0.0 mm 0.00 in0.0 mm
05:02 AM 47.5°F8.6°C 45.5°F7.5°C 93% Calm Calm -- 29.59 in1002.0 mb - 0.00 in0.0 mm 0.00 in0.0 mm
04:57 AM 47.7°F8.7°C 45.7°F7.6°C 93% Calm Calm -- 29.59 in1002.0 mb - 0.00 in0.0 mm 0.00 in0.0 mm
04:52 AM 47.7°F8.7°C 45.7°F7.6°C 93% 0.9 mph N1.4 kmh N -- 29.59 in1002.0 mb - 0.00 in0.0 mm 0.00 in0.0 mm
04:47 AM 47.7°F8.7°C 45.7°F7.6°C 93% 0.9 mph N1.4 kmh N 0.9 mph1.4 kmh 29.59 in1002.0 mb - 0.00 in0.0 mm 0.00 in0.0 mm
04:42 AM 47.7°F8.7°C 45.7°F7.6°C 93% Calm Calm -- 29.60 in1002.4 mb - 0.00 in0.0 mm 0.00 in0.0 mm
04:37 AM 47.8°F8.8°C 45.9°F7.7°C 93% 0.9 mph N1.4 kmh N 0.9 mph1.4 kmh 29.59 in1002.0 mb - 0.00 in0.0 mm 0.00 in0.0 mm
04:32 AM 48.0°F8.9°C 46.0°F7.8°C 93% 0.9 mph N1.4 kmh N -- 29.60 in1002.4 mb - 0.00 in0.0 mm 0.00 in0.0 mm
04:27 AM 48.2°F9.0°C 46.2°F7.9°C 93% 0.9 mph N1.4 kmh N -- 29.60 in1002.4 mb - 0.00 in0.0 mm 0.00 in0.0 mm
04:22 AM 48.4°F9.1°C 46.4°F8.0°C 93% Calm Calm -- 29.60 in1002.4 mb - 0.00 in0.0 mm 0.00 in0.0 mm
04:17 AM 48.7°F9.3°C 46.8°F8.2°C 93% 0.9 mph WSW1.4 kmh WSW -- 29.60 in1002.4 mb - 0.00 in0.0 mm 0.00 in0.0 mm
04:12 AM 48.9°F9.4°C 46.9°F8.3°C 93% 0.9 mph WSW1.4 kmh WSW -- 29.60 in1002.4 mb - 0.00 in0.0 mm 0.00 in0.0 mm
04:07 AM 49.1°F9.5°C 46.9°F8.3°C 92% 0.9 mph NW1.4 kmh NW 0.9 mph1.4 kmh 29.61 in1002.7 mb - 0.00 in0.0 mm 0.00 in0.0 mm
04:02 AM 49.3°F9.6°C 47.3°F8.5°C 93% Calm Calm -- 29.61 in1002.7 mb - 0.00 in0.0 mm 0.00 in0.0 mm
03:57 AM 49.5°F9.7°C 47.5°F8.6°C 93% Calm Calm -- 29.61 in1002.7 mb - 0.00 in0.0 mm 0.00 in0.0 mm
03:52 AM 49.3°F9.6°C 47.3°F8.5°C 93% Calm Calm -- 29.61 in1002.7 mb - 0.00 in0.0 mm 0.00 in0.0 mm
03:47 AM 49.3°F9.6°C 47.3°F8.5°C 93% Calm Calm -- 29.61 in1002.7 mb - 0.00 in0.0 mm 0.00 in0.0 mm
03:42 AM 49.3°F9.6°C 47.3°F8.5°C 93% Calm Calm -- 29.61 in1002.7 mb - 0.00 in0.0 mm 0.00 in0.0 mm
03:37 AM 49.3°F9.6°C 47.1°F8.4°C 92% Calm Calm -- 29.61 in1002.7 mb - 0.00 in0.0 mm 0.00 in0.0 mm
03:32 AM 49.6°F9.8°C 47.5°F8.6°C 92% 0.9 mph NE1.4 kmh NE -- 29.61 in1002.7 mb - 0.00 in0.0 mm 0.00 in0.0 mm
03:27 AM 49.6°F9.8°C 47.5°F8.6°C 92% 0.9 mph NE1.4 kmh NE -- 29.61 in1002.7 mb - 0.00 in0.0 mm 0.00 in0.0 mm
03:22 AM 49.6°F9.8°C 47.5°F8.6°C 92% 0.9 mph NE1.4 kmh NE 2.0 mph3.2 kmh 29.61 in1002.7 mb - 0.00 in0.0 mm 0.00 in0.0 mm
03:17 AM 50.2°F10.1°C 48.0°F8.9°C 92% Calm Calm 2.0 mph3.2 kmh 29.62 in1003.0 mb - 0.00 in0.0 mm 0.00 in0.0 mm
03:12 AM 50.4°F10.2°C 48.2°F9.0°C 92% Calm Calm -- 29.62 in1003.0 mb - 0.00 in0.0 mm 0.00 in0.0 mm
03:07 AM 50.4°F10.2°C 48.2°F9.0°C 92% 0.9 mph NNW1.4 kmh NNW -- 29.62 in1003.0 mb - 0.00 in0.0 mm 0.00 in0.0 mm
03:02 AM 50.4°F10.2°C 48.2°F9.0°C 92% 0.9 mph NNW1.4 kmh NNW 0.9 mph1.4 kmh 29.62 in1003.0 mb - 0.00 in0.0 mm 0.00 in0.0 mm
02:57 AM 50.4°F10.2°C 48.2°F9.0°C 92% 0.9 mph N1.4 kmh N -- 29.62 in1003.0 mb - 0.00 in0.0 mm 0.00 in0.0 mm
02:52 AM 50.4°F10.2°C 48.2°F9.0°C 92% 0.9 mph NW1.4 kmh NW -- 29.62 in1003.0 mb - 0.00 in0.0 mm 0.00 in0.0 mm
02:47 AM 50.2°F10.1°C 48.0°F8.9°C 92% 0.9 mph ESE1.4 kmh ESE 2.9 mph4.7 kmh 29.62 in1003.0 mb - 0.00 in0.0 mm 0.00 in0.0 mm
02:42 AM 50.4°F10.2°C 48.2°F9.0°C 92% 2.0 mph SSE3.2 kmh SSE -- 29.62 in1003.0 mb - 0.00 in0.0 mm 0.00 in0.0 mm
02:37 AM 50.2°F10.1°C 48.0°F8.9°C 92% 0.9 mph E1.4 kmh E 2.9 mph4.7 kmh 29.62 in1003.0 mb - 0.00 in0.0 mm 0.00 in0.0 mm
02:32 AM 50.2°F10.1°C 48.0°F8.9°C 92% 0.9 mph ESE1.4 kmh ESE 2.9 mph4.7 kmh 29.62 in1003.0 mb - 0.00 in0.0 mm 0.00 in0.0 mm
02:27 AM 50.5°F10.3°C 48.0°F8.9°C 91% 0.9 mph SE1.4 kmh SE 0.9 mph1.4 kmh 29.62 in1003.0 mb - 0.00 in0.0 mm 0.00 in0.0 mm
02:22 AM 50.9°F10.5°C 48.7°F9.3°C 92% Calm Calm 0.9 mph1.4 kmh 29.62 in1003.0 mb - 0.00 in0.0 mm 0.00 in0.0 mm
02:17 AM 50.7°F10.4°C 48.6°F9.2°C 92% 0.9 mph NNW1.4 kmh NNW -- 29.62 in1003.0 mb - 0.00 in0.0 mm 0.00 in0.0 mm
02:12 AM 50.7°F10.4°C 48.6°F9.2°C 92% 0.9 mph NNW1.4 kmh NNW -- 29.62 in1003.0 mb - 0.00 in0.0 mm 0.00 in0.0 mm
02:07 AM 50.9°F10.5°C 48.4°F9.1°C 91% Calm Calm -- 29.62 in1003.0 mb - 0.00 in0.0 mm 0.00 in0.0 mm
02:02 AM 50.9°F10.5°C 48.4°F9.1°C 91% Calm Calm 0.9 mph1.4 kmh 29.63 in1003.4 mb - 0.00 in0.0 mm 0.00 in0.0 mm
01:57 AM 51.1°F10.6°C 48.6°F9.2°C 91% Calm Calm -- 29.63 in1003.4 mb - 0.00 in0.0 mm 0.00 in0.0 mm
01:52 AM 51.3°F10.7°C 48.7°F9.3°C 91% Calm Calm -- 29.63 in1003.4 mb - 0.00 in0.0 mm 0.00 in0.0 mm
01:47 AM 51.4°F10.8°C 49.3°F9.6°C 92% Calm Calm -- 29.64 in1003.7 mb - 0.00 in0.0 mm 0.00 in0.0 mm
01:42 AM 51.3°F10.7°C 49.1°F9.5°C 92% 0.9 mph NE1.4 kmh NE -- 29.64 in1003.7 mb - 0.00 in0.0 mm 0.00 in0.0 mm
01:37 AM 50.7°F10.4°C 48.6°F9.2°C 92% 0.9 mph NE1.4 kmh NE -- 29.64 in1003.7 mb - 0.00 in0.0 mm 0.00 in0.0 mm
01:32 AM 50.7°F10.4°C 48.6°F9.2°C 92% Calm Calm 2.0 mph3.2 kmh 29.65 in1004.1 mb - 0.00 in0.0 mm 0.00 in0.0 mm
01:27 AM 50.5°F10.3°C 48.4°F9.1°C 92% Calm Calm -- 29.65 in1004.1 mb - 0.00 in0.0 mm 0.00 in0.0 mm
01:22 AM 50.4°F10.2°C 48.2°F9.0°C 92% Calm Calm -- 29.65 in1004.1 mb - 0.00 in0.0 mm 0.00 in0.0 mm
01:17 AM 50.2°F10.1°C 48.0°F8.9°C 92% 0.9 mph NNW1.4 kmh NNW -- 29.65 in1004.1 mb - 0.00 in0.0 mm 0.00 in0.0 mm
01:12 AM 50.4°F10.2°C 47.8°F8.8°C 91% Calm Calm 2.0 mph3.2 kmh 29.65 in1004.1 mb - 0.00 in0.0 mm 0.00 in0.0 mm
01:07 AM 50.5°F10.3°C 48.0°F8.9°C 91% 0.9 mph SE1.4 kmh SE -- 29.66 in1004.4 mb - 0.00 in0.0 mm 0.00 in0.0 mm
01:02 AM 50.7°F10.4°C 47.8°F8.8°C 90% 2.0 mph SE3.2 kmh SE -- 29.66 in1004.4 mb - 0.00 in0.0 mm 0.00 in0.0 mm
12:57 AM 51.3°F10.7°C 48.4°F9.1°C 90% 2.0 mph SE3.2 kmh SE 2.9 mph4.7 kmh 29.66 in1004.4 mb - 0.00 in0.0 mm 0.00 in0.0 mm
12:52 AM 51.3°F10.7°C 48.4°F9.1°C 90% 2.9 mph SSE4.7 kmh SSE 2.9 mph4.7 kmh 29.66 in1004.4 mb - 0.00 in0.0 mm 0.00 in0.0 mm
12:47 AM 51.6°F10.9°C 48.7°F9.3°C 90% 2.9 mph ESE4.7 kmh ESE 2.0 mph3.2 kmh 29.66 in1004.4 mb - 0.00 in0.0 mm 0.00 in0.0 mm
12:42 AM 50.5°F10.3°C 48.0°F8.9°C 91% 0.9 mph NW1.4 kmh NW 2.9 mph4.7 kmh 29.66 in1004.4 mb - 0.00 in0.0 mm 0.00 in0.0 mm
12:37 AM 50.4°F10.2°C 48.2°F9.0°C 92% Calm Calm 0.9 mph1.4 kmh 29.66 in1004.4 mb - 0.00 in0.0 mm 0.00 in0.0 mm
12:32 AM 50.2°F10.1°C 47.7°F8.7°C 91% Calm Calm -- 29.66 in1004.4 mb - 0.00 in0.0 mm 0.00 in0.0 mm
12:27 AM 50.2°F10.1°C 47.7°F8.7°C 91% Calm Calm 0.9 mph1.4 kmh 29.66 in1004.4 mb - 0.00 in0.0 mm 0.00 in0.0 mm
12:22 AM 50.4°F10.2°C 47.8°F8.8°C 91% Calm Calm -- 29.66 in1004.4 mb - 0.00 in0.0 mm 0.00 in0.0 mm
12:17 AM 50.4°F10.2°C 47.8°F8.8°C 91% Calm Calm -- 29.66 in1004.4 mb - 0.00 in0.0 mm 0.00 in0.0 mm
12:12 AM 50.5°F10.3°C 47.7°F8.7°C 90% Calm Calm -- 29.66 in1004.4 mb - 0.00 in0.0 mm 0.00 in0.0 mm
12:07 AM 50.7°F10.4°C 47.8°F8.8°C 90% 0.9 mph SSE1.4 kmh SSE -- 29.66 in1004.4 mb - 0.00 in0.0 mm 0.00 in0.0 mm
12:02 AM 50.7°F10.4°C 47.8°F8.8°C 90% 0.9 mph ESE1.4 kmh ESE -- 29.66 in1004.4 mb - 0.00 in0.0 mm 0.00 in0.0 mm